Time;durP1;ratioP1;P1;durP2;ratioP2;P2;SDS_P1;SDS_P2;PMS_P1;PMS_P2;Temp;Humidity;BMP_temperature;BMP_pressure;BME280_temperature;BME280_humidity;BME280_pressure;Samples;Min_cycle;Max_cycle;Signal;HPM_P1;HPM_P2
2023/12/06 00:01:17;;;;;;;1999.90;999.90;;;1.70;99.90;;;;;;5074597;28;20032;-76
2023/12/06 00:03:43;;;;;;;1999.90;999.90;;;1.80;99.90;;;;;;5055710;28;20036;-76
2023/12/06 00:06:08;;;;;;;1999.90;999.90;;;1.80;99.90;;;;;;5068234;28;20088;-76
2023/12/06 00:08:34;;;;;;;1999.90;999.90;;;1.80;99.90;;;;;;5073331;28;20100;-76
2023/12/06 00:11:00;;;;;;;1999.90;999.90;;;1.80;99.90;;;;;;5057812;28;20021;-76
2023/12/06 00:13:25;;;;;;;1999.90;999.90;;;1.80;99.90;;;;;;5054067;28;20037;-76
2023/12/06 00:15:51;;;;;;;1999.90;999.90;;;1.90;99.90;;;;;;5078052;28;20036;-76
2023/12/06 00:18:17;;;;;;;1999.90;999.90;;;1.80;99.90;;;;;;5069646;28;20705;-76
2023/12/06 00:20:43;;;;;;;1999.90;999.90;;;1.70;99.90;;;;;;5077982;28;20023;-76
2023/12/06 00:23:08;;;;;;;1999.90;999.90;;;1.70;99.90;;;;;;5073354;28;20060;-76
2023/12/06 00:25:34;;;;;;;1999.90;999.90;;;1.70;99.90;;;;;;5076481;28;20020;-76
2023/12/06 00:28:01;;;;;;;1999.90;999.90;;;1.70;99.90;;;;;;5072798;28;20028;-76
2023/12/06 00:30:27;;;;;;;1999.90;999.90;;;1.80;99.90;;;;;;5071422;28;21465;-76
2023/12/06 00:32:52;;;;;;;1999.90;999.90;;;1.70;99.90;;;;;;5058522;28;20088;-76
2023/12/06 00:35:18;;;;;;;1999.90;999.90;;;1.70;99.90;;;;;;5105735;27;20037;-76
2023/12/06 00:37:44;;;;;;;1999.90;999.90;;;1.60;99.90;;;;;;5070226;28;20115;-75
2023/12/06 00:40:10;;;;;;;1999.90;999.90;;;1.60;99.90;;;;;;5070050;28;20107;-75
2023/12/06 00:42:35;;;;;;;1999.90;999.90;;;1.60;99.90;;;;;;5071651;28;20041;-75
2023/12/06 00:45:01;;;;;;;1999.90;999.90;;;1.50;99.90;;;;;;5071233;28;20610;-75
2023/12/06 00:47:27;;;;;;;1999.90;999.90;;;1.60;99.90;;;;;;5075171;28;20451;-74
2023/12/06 00:49:54;;;;;;;1999.90;999.90;;;1.50;99.90;;;;;;5071715;28;20070;-74
2023/12/06 00:52:19;;;;;;;1999.90;999.90;;;1.50;99.90;;;;;;5072663;28;20152;-74
2023/12/06 00:54:47;;;;;;;1999.90;999.90;;;1.50;99.90;;;;;;5073278;28;20139;-74
2023/12/06 00:57:13;;;;;;;1999.90;999.90;;;1.50;99.90;;;;;;5073176;28;20032;-74
2023/12/06 00:59:39;;;;;;;1999.90;999.90;;;1.30;99.90;;;;;;5069709;28;20571;-73
2023/12/06 01:02:05;;;;;;;1999.90;999.90;;;1.40;99.90;;;;;;5071086;28;20040;-73
2023/12/06 01:04:31;;;;;;;1999.90;999.90;;;1.50;99.90;;;;;;5072706;28;20036;-73
2023/12/06 01:06:56;;;;;;;1999.90;999.90;;;1.50;99.90;;;;;;5078111;28;20040;-73
2023/12/06 01:09:22;;;;;;;1999.90;999.90;;;1.40;99.90;;;;;;5073572;28;20059;-73
2023/12/06 01:11:47;;;;;;;1999.90;999.90;;;1.40;99.90;;;;;;5069245;28;20658;-72
2023/12/06 01:14:13;;;;;;;1999.90;999.90;;;1.50;99.90;;;;;;5071731;28;20100;-73
2023/12/06 01:16:39;;;;;;;1999.90;999.90;;;1.50;99.90;;;;;;5071953;28;20059;-73
2023/12/06 01:19:04;;;;;;;1999.90;999.90;;;1.50;99.90;;;;;;5071067;28;20870;-74
2023/12/06 01:21:30;;;;;;;1999.90;999.90;;;1.50;99.90;;;;;;5069595;28;20124;-73
2023/12/06 01:23:56;;;;;;;1999.90;999.90;;;1.60;99.90;;;;;;5073411;28;20107;-73
2023/12/06 01:26:21;;;;;;;1999.90;999.90;;;1.60;99.90;;;;;;5071515;28;20086;-72
2023/12/06 01:28:47;;;;;;;1999.90;999.90;;;1.60;99.90;;;;;;5073526;28;20041;-72
2023/12/06 01:31:13;;;;;;;1999.90;999.90;;;1.50;99.90;;;;;;5070899;28;20808;-73
2023/12/06 01:33:39;;;;;;;1999.90;999.90;;;1.50;99.90;;;;;;5069720;28;20084;-73
2023/12/06 01:36:05;;;;;;;1999.90;999.90;;;1.70;99.90;;;;;;5068445;28;20589;-73
2023/12/06 01:38:30;;;;;;;1999.90;999.90;;;1.70;99.90;;;;;;5073300;28;20024;-73
2023/12/06 01:40:56;;;;;;;1999.90;999.90;;;1.70;99.90;;;;;;5072799;28;20094;-73
2023/12/06 01:43:22;;;;;;;1999.90;999.90;;;1.70;99.90;;;;;;5073334;28;20043;-74
2023/12/06 01:45:47;;;;;;;1999.90;999.90;;;1.70;99.90;;;;;;5070263;28;20140;-74
2023/12/06 01:48:14;;;;;;;1999.90;999.90;;;1.70;99.90;;;;;;5070768;28;20043;-74
2023/12/06 01:50:41;;;;;;;1999.90;999.90;;;1.70;99.90;;;;;;5073402;28;20036;-74
2023/12/06 01:53:07;;;;;;;1999.90;999.90;;;1.80;99.90;;;;;;5074996;28;20048;-74
2023/12/06 01:55:33;;;;;;;1999.90;999.90;;;1.60;99.90;;;;;;5072806;28;20059;-74
2023/12/06 01:57:59;;;;;;;1999.90;999.90;;;1.60;99.90;;;;;;5073850;28;20043;-74
2023/12/06 02:00:25;;;;;;;1999.90;999.90;;;1.60;99.90;;;;;;5074451;28;20020;-75
2023/12/06 02:02:51;;;;;;;1999.90;999.90;;;1.60;99.90;;;;;;5071422;28;20024;-74
2023/12/06 02:05:18;;;;;;;1999.90;999.90;;;1.60;99.90;;;;;;5072840;28;20040;-74
2023/12/06 02:07:45;;;;;;;1999.90;999.90;;;1.70;99.90;;;;;;5072495;28;20744;-74
2023/12/06 02:10:11;;;;;;;1999.90;999.90;;;1.70;99.90;;;;;;5070052;28;20544;-75
2023/12/06 02:12:37;;;;;;;1999.90;999.90;;;1.70;99.90;;;;;;5069713;28;20028;-74
2023/12/06 02:15:03;;;;;;;1999.90;999.90;;;1.70;99.90;;;;;;5069878;28;20024;-74
2023/12/06 02:17:30;;;;;;;1999.90;999.90;;;1.70;99.90;;;;;;5071171;28;20032;-74
2023/12/06 02:19:56;;;;;;;1999.90;999.90;;;1.70;99.90;;;;;;5072057;28;20048;-75
2023/12/06 02:22:23;;;;;;;1999.90;999.90;;;1.80;99.90;;;;;;5084513;28;20481;-75
2023/12/06 02:24:53;;;;;;;1999.90;999.90;;;1.90;99.90;;;;;;5050985;28;20494;-74
2023/12/06 02:27:20;;;;;;;1999.90;999.90;;;1.80;99.90;;;;;;5072348;28;20120;-75
2023/12/06 02:29:46;;;;;;;1999.90;999.90;;;1.90;99.90;;;;;;5072511;28;20112;-75
2023/12/06 02:32:12;;;;;;;1999.90;999.90;;;1.90;99.90;;;;;;5070214;28;20111;-75
2023/12/06 02:34:38;;;;;;;1999.90;999.90;;;1.90;99.90;;;;;;5071985;28;20042;-75
2023/12/06 02:37:07;;;;;;;1999.90;999.90;;;1.80;99.90;;;;;;5070700;28;20109;-74
2023/12/06 02:39:37;;;;;;;1999.90;999.90;;;1.80;99.90;;;;;;5071344;28;20281;-75
2023/12/06 02:42:03;;;;;;;1999.90;999.90;;;1.80;99.90;;;;;;5071266;28;20036;-75
2023/12/06 02:44:28;;;;;;;1999.90;999.90;;;1.90;99.90;;;;;;5065214;28;20079;-75
2023/12/06 02:46:54;;;;;;;1999.90;999.90;;;1.80;99.90;;;;;;5073656;28;20036;-75
2023/12/06 02:49:20;;;;;;;1999.90;999.90;;;1.80;99.90;;;;;;5069603;28;20029;-75
2023/12/06 02:51:46;;;;;;;1999.90;999.90;;;1.90;99.90;;;;;;5072203;28;20053;-76
2023/12/06 02:54:11;;;;;;;1999.90;999.90;;;1.80;99.90;;;;;;5065362;28;20090;-75
2023/12/06 02:56:40;;;;;;;1999.90;999.90;;;1.90;99.90;;;;;;5072696;28;20031;-76
2023/12/06 02:59:06;;;;;;;1999.90;999.90;;;1.90;99.90;;;;;;5068076;28;20048;-76
2023/12/06 03:01:31;;;;;;;1999.90;999.90;;;1.90;99.90;;;;;;5068400;28;20052;-76
2023/12/06 03:03:57;;;;;;;1999.90;999.90;;;1.90;99.90;;;;;;5071333;28;20520;-77
2023/12/06 03:06:22;;;;;;;1999.90;999.90;;;1.90;99.90;;;;;;5069970;28;20549;-77
2023/12/06 03:08:48;;;;;;;1999.90;999.90;;;1.90;99.90;;;;;;5053450;28;20029;-77
2023/12/06 03:11:14;;;;;;;1999.90;999.90;;;2.10;99.90;;;;;;5069040;28;20486;-76
2023/12/06 03:13:40;;;;;;;1999.90;999.90;;;2.00;99.90;;;;;;5070936;28;20035;-78
2023/12/06 03:16:06;;;;;;;1999.90;999.90;;;2.10;99.90;;;;;;5101675;28;20024;-76
2023/12/06 03:18:31;;;;;;;1999.90;999.90;;;2.10;99.90;;;;;;5068692;28;20085;-78
2023/12/06 03:20:57;;;;;;;1999.90;999.90;;;2.00;99.90;;;;;;5054689;28;20113;-77
2023/12/06 03:23:22;;;;;;;1999.90;999.90;;;2.10;99.90;;;;;;5068541;28;20118;-78
2023/12/06 03:25:51;;;;;;;1999.90;999.90;;;2.00;99.90;;;;;;5066938;28;20044;-77
2023/12/06 03:28:16;;;;;;;1999.90;999.90;;;2.10;99.90;;;;;;5068140;28;20074;-78
2023/12/06 03:30:42;;;;;;;1999.90;999.90;;;2.00;99.90;;;;;;5070666;28;20028;-80
2023/12/06 03:33:08;;;;;;;1999.90;999.90;;;2.00;99.90;;;;;;5062829;28;20068;-77
2023/12/06 03:35:33;;;;;;;1999.90;999.90;;;2.00;99.90;;;;;;5068651;28;20040;-79
2023/12/06 03:37:59;;;;;;;1999.90;999.90;;;2.00;99.90;;;;;;5072937;28;20037;-77
2023/12/06 03:40:25;;;;;;;1999.90;999.90;;;2.00;99.90;;;;;;5069012;28;20398;-78
2023/12/06 03:42:51;;;;;;;1999.90;999.90;;;2.00;99.90;;;;;;5072679;28;20093;-76
2023/12/06 03:45:16;;;;;;;1999.90;999.90;;;2.10;99.90;;;;;;5065744;28;20085;-76
2023/12/06 03:47:42;;;;;;;1999.90;999.90;;;2.10;99.90;;;;;;5068661;28;20127;-78
2023/12/06 03:50:08;;;;;;;1999.90;999.90;;;2.30;99.90;;;;;;5071537;28;20078;-77
2023/12/06 03:52:34;;;;;;;1999.90;999.90;;;2.20;99.90;;;;;;5069375;28;20092;-78
2023/12/06 03:54:59;;;;;;;1999.90;999.90;;;2.30;99.90;;;;;;5070113;28;20032;-76
2023/12/06 03:57:25;;;;;;;1999.90;999.90;;;2.20;99.90;;;;;;5070854;28;20036;-77
2023/12/06 03:59:50;;;;;;;1999.90;999.90;;;2.30;99.90;;;;;;5070368;28;20067;-78
2023/12/06 04:02:17;;;;;;;1999.90;999.90;;;2.30;99.90;;;;;;5066514;28;20363;-76
2023/12/06 04:04:46;;;;;;;1999.90;999.90;;;2.30;99.90;;;;;;5085060;28;20109;-78
2023/12/06 04:07:12;;;;;;;1999.90;999.90;;;2.20;99.90;;;;;;5066670;28;20052;-78
2023/12/06 04:09:38;;;;;;;1999.90;999.90;;;2.20;99.90;;;;;;5074499;28;20791;-80
2023/12/06 04:12:05;;;;;;;1999.90;999.90;;;2.30;99.90;;;;;;5072380;28;20033;-77
2023/12/06 04:14:31;;;;;;;1999.90;999.90;;;2.30;99.90;;;;;;5069964;28;20433;-77
2023/12/06 04:16:57;;;;;;;1999.90;999.90;;;2.30;99.90;;;;;;5070933;28;20028;-77
2023/12/06 04:19:22;;;;;;;1999.90;999.90;;;2.30;99.90;;;;;;5073452;28;20028;-76
2023/12/06 04:21:48;;;;;;;1999.90;999.90;;;2.20;99.90;;;;;;5075315;28;20041;-78
2023/12/06 04:24:14;;;;;;;1999.90;999.90;;;2.30;99.90;;;;;;5073039;28;20043;-76
2023/12/06 04:26:39;;;;;;;1999.90;999.90;;;2.30;99.90;;;;;;5077216;28;20063;-78
2023/12/06 04:29:05;;;;;;;1999.90;999.90;;;2.30;99.90;;;;;;5074999;28;20029;-77
2023/12/06 04:31:30;;;;;;;1999.90;999.90;;;2.20;99.90;;;;;;5073063;28;20024;-79
2023/12/06 04:33:56;;;;;;;1999.90;999.90;;;2.20;99.90;;;;;;5073292;28;20025;-77
2023/12/06 04:36:22;;;;;;;1999.90;999.90;;;2.30;99.90;;;;;;5078914;28;20044;-77
2023/12/06 04:38:48;;;;;;;1999.90;999.90;;;2.30;99.90;;;;;;5075529;28;20043;-76
2023/12/06 04:41:13;;;;;;;1999.90;999.90;;;2.30;99.90;;;;;;5073434;28;20035;-77
2023/12/06 04:43:39;;;;;;;1999.90;999.90;;;2.40;99.90;;;;;;5073996;28;20138;-78
2023/12/06 04:46:05;;;;;;;1999.90;999.90;;;2.30;99.90;;;;;;5076265;28;20469;-78
2023/12/06 04:48:30;;;;;;;1999.90;999.90;;;2.30;99.90;;;;;;5074871;28;20039;-77
2023/12/06 04:50:56;;;;;;;1999.90;999.90;;;2.30;99.90;;;;;;5061109;28;20478;-78
2023/12/06 04:53:23;;;;;;;1999.90;999.90;;;2.30;99.90;;;;;;5072769;28;20534;-78
2023/12/06 04:55:49;;;;;;;1999.90;999.90;;;2.30;99.90;;;;;;5075496;28;20020;-77
2023/12/06 04:58:14;;;;;;;1999.90;999.90;;;2.30;99.90;;;;;;5073459;28;20674;-76
2023/12/06 05:00:40;;;;;;;1999.90;999.90;;;2.30;99.90;;;;;;5071314;28;20021;-77
2023/12/06 05:03:06;;;;;;;1999.90;999.90;;;2.40;99.90;;;;;;5069654;28;20452;-77
2023/12/06 05:05:31;;;;;;;1999.90;999.90;;;2.30;99.90;;;;;;5069841;28;20047;-78
2023/12/06 05:07:57;;;;;;;1999.90;999.90;;;2.40;99.90;;;;;;5073229;28;20040;-76
2023/12/06 05:10:23;;;;;;;1999.90;999.90;;;2.60;99.90;;;;;;5072673;28;20032;-76
2023/12/06 05:12:48;;;;;;;1999.90;999.90;;;2.40;99.90;;;;;;5076116;28;20036;-77
2023/12/06 05:15:14;;;;;;;1999.90;999.90;;;2.60;99.90;;;;;;5054216;28;20051;-77
2023/12/06 05:17:40;;;;;;;1999.90;999.90;;;2.50;99.90;;;;;;5079254;28;20130;-77
2023/12/06 05:20:07;;;;;;;1999.90;999.90;;;2.60;99.90;;;;;;5069512;28;20032;-78
2023/12/06 05:22:36;;;;;;;1999.90;999.90;;;2.60;99.90;;;;;;5076430;28;20161;-76
2023/12/06 05:25:03;;;;;;;1999.90;999.90;;;2.60;99.90;;;;;;5073723;28;20497;-76
2023/12/06 05:27:29;;;;;;;1999.90;999.90;;;2.50;99.90;;;;;;5071693;28;20025;-77
2023/12/06 05:29:54;;;;;;;1999.90;999.90;;;2.50;99.90;;;;;;5072769;28;20032;-76
2023/12/06 05:32:20;;;;;;;1999.90;999.90;;;2.50;99.90;;;;;;5076540;28;20465;-77
2023/12/06 05:34:46;;;;;;;1999.90;999.90;;;2.60;99.90;;;;;;5069586;28;20421;-77
2023/12/06 05:37:11;;;;;;;1999.90;999.90;;;2.60;99.90;;;;;;5075155;28;20047;-76
2023/12/06 05:39:39;;;;;;;1999.90;999.90;;;2.50;99.90;;;;;;5051858;28;20037;-76
2023/12/06 05:42:04;;;;;;;1999.90;999.90;;;2.50;99.90;;;;;;5104675;27;20033;-75
2023/12/06 05:44:30;;;;;;;1999.90;999.90;;;2.50;99.90;;;;;;5066753;28;20032;-76
2023/12/06 05:46:56;;;;;;;1999.90;999.90;;;2.50;99.90;;;;;;5071493;28;20443;-79
2023/12/06 05:49:23;;;;;;;1999.90;999.90;;;2.40;99.90;;;;;;5071205;28;20390;-77
2023/12/06 05:51:48;;;;;;;1999.90;999.90;;;2.50;99.90;;;;;;5066818;28;20054;-76
2023/12/06 05:54:14;;;;;;;1999.90;999.90;;;2.50;99.90;;;;;;5065746;28;20052;-75
2023/12/06 05:56:40;;;;;;;1999.90;999.90;;;2.50;99.90;;;;;;5069079;28;20032;-76
2023/12/06 05:59:06;;;;;;;1999.90;999.90;;;2.40;99.90;;;;;;5073555;28;20066;-80
2023/12/06 06:01:33;;;;;;;1999.90;999.90;;;2.50;99.90;;;;;;5065780;28;20277;-77
2023/12/06 06:03:58;;;;;;;1999.90;999.90;;;2.50;99.90;;;;;;5072011;28;20037;-77
2023/12/06 06:06:24;;;;;;;1999.90;999.90;;;2.40;99.90;;;;;;5073397;28;20040;-78
2023/12/06 06:08:50;;;;;;;1999.90;999.90;;;2.60;99.90;;;;;;5071645;28;20783;-78
2023/12/06 06:11:16;;;;;;;1999.90;999.90;;;2.50;99.90;;;;;;5069656;28;20024;-76
2023/12/06 06:13:42;;;;;;;1999.90;999.90;;;2.50;99.90;;;;;;5071846;28;20082;-78
2023/12/06 06:16:08;;;;;;;1999.90;999.90;;;2.50;99.90;;;;;;5069674;28;20597;-78
2023/12/06 06:18:33;;;;;;;1999.90;999.90;;;2.50;99.90;;;;;;5067895;28;20441;-77
2023/12/06 06:21:05;;;;;;;1999.90;999.90;;;2.50;99.90;;;;;;5064188;28;20089;-76
2023/12/06 06:23:32;;;;;;;1999.90;999.90;;;2.30;99.90;;;;;;5069043;28;20032;-76
2023/12/06 06:25:57;;;;;;;1999.90;999.90;;;2.50;99.90;;;;;;5065576;28;20063;-74
2023/12/06 06:28:23;;;;;;;1999.90;999.90;;;2.40;99.90;;;;;;5068909;28;20549;-78
2023/12/06 06:30:49;;;;;;;1999.90;999.90;;;2.40;99.90;;;;;;5068794;28;20035;-76
2023/12/06 06:33:14;;;;;;;1999.90;999.90;;;2.40;99.90;;;;;;5065746;28;20477;-74
2023/12/06 06:35:40;;;;;;;1999.90;999.90;;;2.40;99.90;;;;;;5071171;28;20097;-75
2023/12/06 06:38:06;;;;;;;1999.90;999.90;;;2.50;99.90;;;;;;5068653;28;20028;-76
2023/12/06 06:40:32;;;;;;;1999.90;999.90;;;2.40;99.90;;;;;;5070464;28;20036;-75
2023/12/06 06:42:58;;;;;;;1999.90;999.90;;;2.40;99.90;;;;;;5068367;28;20025;-76
2023/12/06 06:45:24;;;;;;;1999.90;999.90;;;2.40;99.90;;;;;;5067906;28;20090;-73
2023/12/06 06:47:49;;;;;;;1999.90;999.90;;;2.40;99.90;;;;;;5066953;28;20044;-75
2023/12/06 06:50:15;;;;;;;1999.90;999.90;;;2.60;99.90;;;;;;5084460;28;20036;-76
2023/12/06 06:53:05;;;;;;;1999.90;999.90;;;2.50;99.90;;;;;;5069370;28;20048;-89
2023/12/06 06:55:31;;;;;;;1999.90;999.90;;;2.50;99.90;;;;;;5066196;28;20024;-89
2023/12/06 06:57:58;;;;;;;1999.90;999.90;;;2.50;99.90;;;;;;5064520;28;20070;-89
2023/12/06 07:00:25;;;;;;;1999.90;999.90;;;2.60;99.90;;;;;;5053925;28;20543;-89
2023/12/06 07:02:51;;;;;;;1999.90;999.90;;;2.60;99.90;;;;;;5067022;28;20038;-88
2023/12/06 07:05:17;;;;;;;1999.90;999.90;;;2.50;99.90;;;;;;5068949;28;20054;-90
2023/12/06 07:07:42;;;;;;;1999.90;999.90;;;2.60;99.90;;;;;;5068693;28;20700;-89
2023/12/06 07:10:09;;;;;;;1999.90;999.90;;;2.60;99.90;;;;;;5068512;28;20070;-89
2023/12/06 07:12:36;;;;;;;1999.90;999.90;;;2.60;99.90;;;;;;5067724;28;20751;-89
2023/12/06 07:15:03;;;;;;;1999.90;999.90;;;2.60;99.90;;;;;;5068570;28;20115;-90
2023/12/06 07:17:29;;;;;;;1999.90;999.90;;;2.60;99.90;;;;;;5071330;28;20127;-88
2023/12/06 07:19:55;;;;;;;1999.90;999.90;;;2.50;99.90;;;;;;5068185;28;20036;-91
2023/12/06 07:22:22;;;;;;;1999.90;999.90;;;2.60;99.90;;;;;;5069272;28;20032;-89
2023/12/06 07:24:48;;;;;;;1999.90;999.90;;;2.50;99.90;;;;;;5067603;28;20043;-88
2023/12/06 07:27:14;;;;;;;1999.90;999.90;;;2.60;99.90;;;;;;5100780;28;20032;-89
2023/12/06 07:29:42;;;;;;;1999.90;999.90;;;2.50;99.90;;;;;;5070547;28;20493;-90
2023/12/06 07:32:08;;;;;;;1999.90;999.90;;;2.50;99.90;;;;;;5068532;28;20036;-87
2023/12/06 07:34:34;;;;;;;1999.90;999.90;;;2.50;99.90;;;;;;5066370;28;20021;-89
2023/12/06 07:37:00;;;;;;;1999.90;999.90;;;2.40;99.90;;;;;;5067870;28;20029;-87
2023/12/06 07:39:26;;;;;;;1999.90;999.90;;;2.50;99.90;;;;;;5067464;28;20094;-89
2023/12/06 07:41:52;;;;;;;1999.90;999.90;;;2.60;99.90;;;;;;5062985;28;20071;-88
2023/12/06 07:44:22;;;;;;;1999.90;999.90;;;2.60;99.90;;;;;;5070124;28;20052;-89
2023/12/06 07:46:50;;;;;;;1999.90;999.90;;;2.60;99.90;;;;;;5067546;28;20032;-89
2023/12/06 07:49:16;;;;;;;1999.90;999.90;;;2.60;99.90;;;;;;5072742;28;20047;-90
2023/12/06 07:51:43;;;;;;;1999.90;999.90;;;2.60;99.90;;;;;;5104478;27;20087;-87
2023/12/06 07:54:09;;;;;;;1999.90;999.90;;;2.80;99.90;;;;;;5070130;28;20025;-90
2023/12/06 07:56:35;;;;;;;1999.90;999.90;;;2.80;99.90;;;;;;5073258;28;20028;-88
2023/12/06 07:59:01;;;;;;;1999.90;999.90;;;2.80;99.90;;;;;;5069209;28;20119;-86
2023/12/06 08:01:31;;;;;;;1999.90;999.90;;;2.80;99.90;;;;;;5072484;28;20025;-89
2023/12/06 08:04:00;;;;;;;1999.90;999.90;;;2.80;99.90;;;;;;5068907;28;20024;-87
2023/12/06 08:06:28;;;;;;;1999.90;999.90;;;3.00;99.90;;;;;;5070475;28;20025;-92
2023/12/06 08:08:55;;;;;;;1999.90;999.90;;;3.00;99.90;;;;;;5068679;28;20165;-90
2023/12/06 08:11:21;;;;;;;1999.90;999.90;;;3.00;99.90;;;;;;5071936;28;20020;-89
2023/12/06 08:13:48;;;;;;;1999.90;999.90;;;3.20;99.90;;;;;;5076590;28;20028;-90
2023/12/06 08:16:14;;;;;;;1999.90;999.90;;;3.20;99.90;;;;;;5058821;28;20028;-91
2023/12/06 08:18:40;;;;;;;1999.90;999.90;;;3.10;99.90;;;;;;5072614;28;20024;-89
2023/12/06 08:21:09;;;;;;;1999.90;999.90;;;3.10;99.90;;;;;;5072621;28;20063;-87
2023/12/06 08:23:35;;;;;;;1999.90;999.90;;;3.10;99.90;;;;;;5075214;28;20081;-89
2023/12/06 08:26:01;;;;;;;1999.90;999.90;;;3.10;99.90;;;;;;5072203;28;20475;-88
2023/12/06 08:28:27;;;;;;;1999.90;999.90;;;3.20;99.90;;;;;;5069625;28;20032;-88
2023/12/06 08:30:54;;;;;;;1999.90;999.90;;;3.20;99.90;;;;;;5068920;28;20029;-88
2023/12/06 08:33:22;;;;;;;1999.90;999.90;;;3.20;99.90;;;;;;5067147;28;20052;-90
2023/12/06 08:35:51;;;;;;;1999.90;999.90;;;3.30;99.90;;;;;;5071238;28;20093;-92
2023/12/06 08:38:16;;;;;;;1999.90;999.90;;;3.20;99.90;;;;;;5069905;28;20024;-89
2023/12/06 08:40:42;;;;;;;1999.90;999.90;;;3.30;99.90;;;;;;5074763;28;20094;-89
2023/12/06 08:43:08;;;;;;;1999.90;999.90;;;3.30;99.90;;;;;;5067706;28;20040;-91
2023/12/06 08:45:37;;;;;;;1999.90;999.90;;;3.40;99.90;;;;;;5069629;28;20032;-87
2023/12/06 08:48:04;;;;;;;1999.90;999.90;;;3.20;99.90;;;;;;5068788;28;20041;-89
2023/12/06 08:50:29;;;;;;;1999.90;999.90;;;3.20;99.90;;;;;;5051023;28;20020;-91
2023/12/06 08:52:56;;;;;;;1999.90;999.90;;;3.30;99.90;;;;;;5067858;28;20085;-91
2023/12/06 08:55:22;;;;;;;1999.90;999.90;;;3.30;99.90;;;;;;5066258;28;20525;-89
2023/12/06 08:57:50;;;;;;;1999.90;999.90;;;3.30;99.90;;;;;;5046878;28;20040;-90
2023/12/06 09:00:16;;;;;;;1999.90;999.90;;;3.40;99.90;;;;;;5066715;28;20394;-88
2023/12/06 09:02:42;;;;;;;1999.90;999.90;;;3.50;99.90;;;;;;5054835;28;20043;-89
2023/12/06 09:05:11;;;;;;;1999.90;999.90;;;3.60;99.90;;;;;;5068602;28;20821;-91
2023/12/06 09:07:40;;;;;;;1999.90;999.90;;;3.60;99.90;;;;;;5036944;28;20040;-89
2023/12/06 09:10:07;;;;;;;1999.90;999.90;;;3.60;99.90;;;;;;5067279;28;20228;-90
2023/12/06 09:12:33;;;;;;;1999.90;999.90;;;3.50;99.90;;;;;;5067968;28;20358;-89
2023/12/06 09:14:59;;;;;;;1999.90;999.90;;;3.50;99.90;;;;;;5069790;28;20033;-90
2023/12/06 09:17:24;;;;;;;1999.90;999.90;;;3.60;99.90;;;;;;5049488;28;20478;-89
2023/12/06 09:19:51;;;;;;;1999.90;999.90;;;3.80;99.90;;;;;;5070503;28;20032;-88
2023/12/06 09:22:19;;;;;;;1999.90;999.90;;;3.60;99.90;;;;;;5067586;28;20086;-89
2023/12/06 09:24:45;;;;;;;1999.90;999.90;;;3.60;99.90;;;;;;5051374;28;20036;-89
2023/12/06 09:27:11;;;;;;;1999.90;999.90;;;3.60;99.90;;;;;;5069118;28;20666;-89
2023/12/06 09:29:37;;;;;;;1999.90;999.90;;;3.60;99.90;;;;;;5038850;28;20077;-90
2023/12/06 09:32:02;;;;;;;1999.90;999.90;;;3.70;99.90;;;;;;5067811;28;20034;-90
2023/12/06 09:34:31;;;;;;;1999.90;999.90;;;3.70;99.90;;;;;;5051544;28;20615;-89
2023/12/06 09:36:56;;;;;;;1999.90;999.90;;;3.80;99.90;;;;;;5068006;28;20047;-90
2023/12/06 09:39:22;;;;;;;1999.90;999.90;;;3.80;99.90;;;;;;5071013;28;20029;-88
2023/12/06 09:41:51;;;;;;;1999.90;999.90;;;3.80;99.90;;;;;;5067397;28;20047;-89
2023/12/06 09:44:17;;;;;;;1999.90;999.90;;;3.90;99.90;;;;;;5081763;28;20028;-88
2023/12/06 09:46:44;;;;;;;1999.90;999.90;;;3.90;99.90;;;;;;5070508;28;20039;-90
2023/12/06 09:49:10;;;;;;;1999.90;999.90;;;4.00;99.90;;;;;;5066975;28;20155;-90
2023/12/06 09:51:36;;;;;;;1999.90;999.90;;;3.80;99.90;;;;;;5067848;28;20147;-89
2023/12/06 09:54:02;;;;;;;1999.90;999.90;;;3.80;99.90;;;;;;5069550;28;20032;-89
2023/12/06 09:56:27;;;;;;;1999.90;999.90;;;3.90;99.90;;;;;;5069149;28;20024;-89
2023/12/06 09:58:53;;;;;;;1999.90;999.90;;;3.90;99.90;;;;;;5067346;28;20028;-89
2023/12/06 10:01:19;;;;;;;1999.90;999.90;;;3.90;99.90;;;;;;5067680;28;20036;-88
2023/12/06 10:03:46;;;;;;;1999.90;999.90;;;3.90;99.90;;;;;;5070348;28;20028;-86
2023/12/06 10:06:12;;;;;;;1999.90;999.90;;;3.90;99.90;;;;;;5067885;28;20051;-89
2023/12/06 10:08:38;;;;;;;1999.90;999.90;;;3.80;99.90;;;;;;5067520;28;20032;-89
2023/12/06 10:11:06;;;;;;;1999.90;999.90;;;3.80;99.90;;;;;;5053401;28;20083;-89
2023/12/06 10:13:39;;;;;;;1999.90;999.90;;;3.90;99.90;;;;;;5068120;28;20039;-91
2023/12/06 10:16:19;;;;;;;1999.90;999.90;;;3.90;99.90;;;;;;5070236;28;20044;-90
2023/12/06 10:18:55;;;;;;;1999.90;999.90;;;3.70;99.90;;;;;;5068505;28;20077;-88
2023/12/06 10:21:21;;;;;;;1999.90;999.90;;;3.70;99.90;;;;;;5066276;28;20214;-89
2023/12/06 10:23:54;;;;;;;1999.90;999.90;;;3.80;99.90;;;;;;5099795;27;20791;-91
2023/12/06 10:26:27;;;;;;;1999.90;999.90;;;3.80;99.90;;;;;;5064756;28;20574;-91
2023/12/06 10:28:54;;;;;;;1999.90;999.90;;;3.90;99.90;;;;;;5097911;27;20033;-89
2023/12/06 10:31:19;;;;;;;1999.90;999.90;;;3.80;99.90;;;;;;5066159;28;20020;-89
2023/12/06 10:33:52;;;;;;;1999.90;999.90;;;3.70;99.90;;;;;;5070041;28;20069;-88
2023/12/06 10:36:19;;;;;;;1999.90;999.90;;;3.60;99.90;;;;;;5068702;28;20029;-89
2023/12/06 10:38:46;;;;;;;1999.90;999.90;;;3.60;99.90;;;;;;5072806;28;20024;-91
2023/12/06 10:41:16;;;;;;;1999.90;999.90;;;3.60;99.90;;;;;;5050443;28;20066;-89
2023/12/06 10:43:43;;;;;;;1999.90;999.90;;;3.60;99.90;;;;;;5070440;28;20039;-88
2023/12/06 10:46:11;;;;;;;1999.90;999.90;;;3.70;99.90;;;;;;5067970;28;20502;-89
2023/12/06 10:48:38;;;;;;;1999.90;999.90;;;3.70;99.90;;;;;;5068268;28;20090;-86
2023/12/06 10:51:05;;;;;;;1999.90;999.90;;;3.70;99.90;;;;;;5066201;28;20075;-88
2023/12/06 10:53:32;;;;;;;1999.90;999.90;;;3.70;99.90;;;;;;5069499;28;20073;-88
2023/12/06 10:56:00;;;;;;;1999.90;999.90;;;3.40;99.90;;;;;;5065946;28;20035;-90
2023/12/06 10:58:26;;;;;;;1999.90;999.90;;;3.40;99.90;;;;;;5069149;28;20474;-88
2023/12/06 11:00:53;;;;;;;1999.90;999.90;;;3.40;99.90;;;;;;5053099;28;20085;-89
2023/12/06 11:03:22;;;;;;;1999.90;999.90;;;3.20;99.90;;;;;;5047774;28;20463;-89
2023/12/06 11:05:53;;;;;;;1999.90;999.90;;;3.20;99.90;;;;;;5053882;28;20036;-88
2023/12/06 11:08:32;;;;;;;1999.90;999.90;;;3.20;99.90;;;;;;5071300;28;20120;-91
2023/12/06 11:11:19;;;;;;;1999.90;999.90;;;3.30;99.90;;;;;;5067122;28;20025;-90
2023/12/06 11:14:11;;;;;;;1999.90;999.90;;;3.40;99.90;;;;;;5069437;28;20028;-87
2023/12/06 11:16:58;;;;;;;1999.90;999.90;;;3.30;99.90;;;;;;5066144;28;20039;-87
2023/12/06 11:19:24;;;;;;;1999.90;999.90;;;3.40;99.90;;;;;;5065763;28;20512;-88
2023/12/06 11:21:50;;;;;;;1999.90;999.90;;;3.50;99.90;;;;;;5064690;28;20410;-88
2023/12/06 11:24:16;;;;;;;1999.90;999.90;;;3.50;99.90;;;;;;5061832;28;20036;-88
2023/12/06 11:26:42;;;;;;;1999.90;999.90;;;3.30;99.90;;;;;;5061250;28;20032;-90
2023/12/06 11:29:08;;;;;;;1999.90;999.90;;;3.30;99.90;;;;;;5061505;28;20072;-90
2023/12/06 11:31:36;;;;;;;1999.90;999.90;;;3.20;99.90;;;;;;5066911;28;20024;-88
2023/12/06 11:34:09;;;;;;;1999.90;999.90;;;3.20;99.90;;;;;;5067748;28;20017;-88
2023/12/06 11:36:35;;;;;;;1999.90;999.90;;;3.20;99.90;;;;;;5066382;28;20036;-90
2023/12/06 11:39:17;;;;;;;1999.90;999.90;;;3.20;99.90;;;;;;5069489;28;20082;-89
2023/12/06 11:41:53;;;;;;;1999.90;999.90;;;3.20;99.90;;;;;;5063640;28;20029;-89
2023/12/06 11:44:19;;;;;;;1999.90;999.90;;;3.30;99.90;;;;;;5068271;28;20146;-87
2023/12/06 11:46:55;;;;;;;1999.90;999.90;;;3.30;99.90;;;;;;5070754;28;20066;-88
2023/12/06 11:49:26;;;;;;;1999.90;999.90;;;3.30;99.90;;;;;;5066757;28;20071;-88
2023/12/06 11:52:02;;;;;;;1999.90;999.90;;;3.20;99.90;;;;;;5067704;28;20445;-88
2023/12/06 11:54:29;;;;;;;1999.90;999.90;;;3.10;99.90;;;;;;5068230;28;20031;-87
2023/12/06 11:57:08;;;;;;;1999.90;999.90;;;3.10;99.90;;;;;;5065989;28;20036;-90
2023/12/06 11:59:34;;;;;;;1999.90;999.90;;;3.10;99.90;;;;;;5065231;28;20033;-77
2023/12/06 12:02:00;;;;;;;1999.90;999.90;;;3.10;99.90;;;;;;5066031;28;20064;-80
2023/12/06 12:04:27;;;;;;;1999.90;999.90;;;3.10;99.90;;;;;;5068609;28;20028;-78
2023/12/06 12:06:53;;;;;;;1999.90;999.90;;;3.10;99.90;;;;;;5068084;28;20044;-79